Time;durP1;ratioP1;P1;durP2;ratioP2;P2;SDS_P1;SDS_P2;PMS_P1;PMS_P2;Temp;Humidity;BMP_temperature;BMP_pressure;BME280_temperature;BME280_humidity;BME280_pressure;Samples;Min_cycle;Max_cycle;Signal;HPM_P1;HPM_P2
2024/01/16 00:01:59;;;;;;;5.40;0.90;;;0.20;97.40;;;;;;5068471;28;20493;-78
2024/01/16 00:04:26;;;;;;;5.90;1.02;;;0.20;97.50;;;;;;5095499;28;20420;-77
2024/01/16 00:06:52;;;;;;;8.30;1.00;;;0.20;97.50;;;;;;5095303;28;20859;-78
2024/01/16 00:09:18;;;;;;;7.47;0.60;;;0.20;97.60;;;;;;5088936;28;20444;-77
2024/01/16 00:11:44;;;;;;;8.70;1.00;;;0.20;97.80;;;;;;5086969;28;20796;-77
2024/01/16 00:14:10;;;;;;;6.13;0.98;;;0.20;98.00;;;;;;5095244;28;20513;-77
2024/01/16 00:17:02;;;;;;;10.70;1.20;;;0.20;98.20;;;;;;5090446;28;20396;-77
2024/01/16 00:19:27;;;;;;;6.35;0.70;;;0.20;98.20;;;;;;5087132;28;20445;-77
2024/01/16 00:21:53;;;;;;;7.57;0.77;;;0.20;98.30;;;;;;5106222;28;20400;-77
2024/01/16 00:24:19;;;;;;;8.07;1.20;;;0.20;98.30;;;;;;5102146;28;20442;-77
2024/01/16 00:26:44;;;;;;;9.32;1.15;;;0.20;98.50;;;;;;5101798;28;20432;-77
2024/01/16 00:29:12;;;;;;;10.67;1.20;;;0.20;99.00;;;;;;5085176;28;20418;-77
2024/01/16 00:31:38;;;;;;;9.43;1.30;;;0.30;98.80;;;;;;5100960;28;20831;-77
2024/01/16 00:34:04;;;;;;;10.15;1.20;;;0.20;98.70;;;;;;5088514;28;20445;-77
2024/01/16 00:36:30;;;;;;;9.77;1.40;;;0.30;98.90;;;;;;5105837;28;20396;-77
2024/01/16 00:38:56;;;;;;;8.93;1.00;;;0.30;98.90;;;;;;5092600;28;20433;-78
2024/01/16 00:41:21;;;;;;;7.00;1.20;;;0.30;98.90;;;;;;5095570;28;20458;-78
2024/01/16 00:43:47;;;;;;;6.67;0.90;;;0.40;98.90;;;;;;5089831;28;20417;-77
2024/01/16 00:46:13;;;;;;;7.07;0.75;;;0.40;98.90;;;;;;5092127;28;20442;-77
2024/01/16 00:48:39;;;;;;;5.63;0.93;;;0.50;99.00;;;;;;5093218;28;20799;-77
2024/01/16 00:51:04;;;;;;;7.40;0.70;;;0.60;98.80;;;;;;5103034;28;20400;-77
2024/01/16 00:53:30;;;;;;;6.30;0.90;;;0.70;98.50;;;;;;5100120;28;20428;-77
2024/01/16 00:55:56;;;;;;;5.20;0.70;;;0.70;98.50;;;;;;5104590;28;20496;-77
2024/01/16 00:58:22;;;;;;;7.80;0.50;;;0.80;97.80;;;;;;5096901;28;20838;-77
2024/01/16 01:00:48;;;;;;;9.48;1.00;;;0.90;97.30;;;;;;5087634;28;20812;-77
2024/01/16 01:03:14;;;;;;;4.85;0.50;;;0.90;96.70;;;;;;5091441;28;20430;-76
2024/01/16 01:05:40;;;;;;;8.53;1.00;;;1.00;96.30;;;;;;5086955;28;20616;-77
2024/01/16 01:08:06;;;;;;;8.13;1.00;;;1.00;95.80;;;;;;5097994;28;20417;-78
2024/01/16 01:10:32;;;;;;;6.03;0.90;;;1.00;95.70;;;;;;5090619;28;20491;-77
2024/01/16 01:12:57;;;;;;;9.57;0.80;;;1.00;95.60;;;;;;5100349;28;20538;-77
2024/01/16 01:15:23;;;;;;;7.70;1.10;;;1.00;95.50;;;;;;5095018;28;20429;-77
2024/01/16 01:17:50;;;;;;;10.23;0.90;;;1.00;95.60;;;;;;5102837;28;20406;-77
2024/01/16 01:20:17;;;;;;;9.88;1.10;;;1.00;95.60;;;;;;5096604;28;20934;-77
2024/01/16 01:22:44;;;;;;;6.18;0.80;;;0.90;95.60;;;;;;5106548;28;20402;-77
2024/01/16 01:25:10;;;;;;;6.90;0.70;;;0.90;95.70;;;;;;5099326;28;20418;-77
2024/01/16 01:27:36;;;;;;;6.20;0.67;;;0.70;95.70;;;;;;5091177;28;20487;-78
2024/01/16 01:30:02;;;;;;;4.97;0.60;;;0.70;95.40;;;;;;5096349;28;20421;-77
2024/01/16 01:32:27;;;;;;;5.40;0.47;;;0.60;95.30;;;;;;5091829;28;20509;-77
2024/01/16 01:34:53;;;;;;;6.40;0.80;;;0.50;95.40;;;;;;5098617;28;20856;-77
2024/01/16 01:37:19;;;;;;;7.27;0.90;;;0.50;95.50;;;;;;5101992;28;20398;-77
2024/01/16 01:39:44;;;;;;;5.03;0.50;;;0.50;95.50;;;;;;5104771;28;20392;-77
2024/01/16 01:42:10;;;;;;;7.13;0.55;;;0.40;95.50;;;;;;5092340;28;20421;-78
2024/01/16 01:44:35;;;;;;;6.03;0.80;;;0.40;95.30;;;;;;5107609;28;20400;-77
2024/01/16 01:47:02;;;;;;;7.97;0.80;;;0.40;95.50;;;;;;5101000;28;20460;-78
2024/01/16 01:49:28;;;;;;;9.80;0.77;;;0.40;95.60;;;;;;5098368;28;20421;-78
2024/01/16 01:51:55;;;;;;;9.30;1.00;;;0.30;95.70;;;;;;5098113;28;20459;-78
2024/01/16 01:54:22;;;;;;;4.57;0.60;;;0.30;95.70;;;;;;5096200;28;20428;-77
2024/01/16 01:56:49;;;;;;;6.68;0.80;;;0.30;95.80;;;;;;5101276;28;20459;-78
2024/01/16 01:59:18;;;;;;;3.80;0.50;;;0.30;95.80;;;;;;5099625;28;20406;-78
2024/01/16 02:01:45;;;;;;;4.38;0.40;;;0.30;95.60;;;;;;5088227;28;20857;-78
2024/01/16 02:04:14;;;;;;;8.23;0.80;;;0.20;95.40;;;;;;5097467;28;20397;-77
2024/01/16 02:06:41;;;;;;;6.13;0.68;;;0.20;95.30;;;;;;5091295;28;20489;-77
2024/01/16 02:09:07;;;;;;;4.93;0.40;;;0.10;95.20;;;;;;5090185;28;20414;-78
2024/01/16 02:11:33;;;;;;;6.00;0.50;;;0.10;95.20;;;;;;5093208;28;20446;-77
2024/01/16 02:13:58;;;;;;;4.07;0.50;;;0.10;95.20;;;;;;5104983;28;21067;-77
2024/01/16 02:16:24;;;;;;;7.70;0.70;;;0.00;94.90;;;;;;5093476;28;20416;-78
2024/01/16 02:18:52;;;;;;;7.05;0.75;;;0.00;94.80;;;;;;5108381;28;20424;-79
2024/01/16 02:21:22;;;;;;;6.70;0.77;;;0.00;94.60;;;;;;5091299;28;20951;-78
2024/01/16 02:23:48;;;;;;;5.95;1.10;;;-0.10;94.50;;;;;;5103383;28;20496;-78
2024/01/16 02:26:15;;;;;;;7.50;0.88;;;0.00;94.40;;;;;;5099859;28;20508;-79
2024/01/16 02:28:41;;;;;;;7.50;0.70;;;0.00;94.50;;;;;;5099675;28;20416;-78
2024/01/16 02:31:08;;;;;;;6.47;0.60;;;0.00;94.30;;;;;;5085911;28;20898;-78
2024/01/16 02:33:33;;;;;;;7.53;0.50;;;-0.10;93.80;;;;;;5099450;28;20436;-78
2024/01/16 02:35:59;;;;;;;4.93;0.57;;;-0.10;93.90;;;;;;5075331;28;20408;-78
2024/01/16 02:38:25;;;;;;;6.37;1.10;;;-0.10;94.00;;;;;;5102503;28;20503;-78
2024/01/16 02:40:51;;;;;;;4.53;0.40;;;-0.10;94.10;;;;;;5106079;28;20496;-78
2024/01/16 02:43:16;;;;;;;4.88;0.60;;;-0.10;93.60;;;;;;5086234;28;20412;-78
2024/01/16 02:45:42;;;;;;;6.85;0.50;;;-0.10;93.90;;;;;;5080864;28;20423;-78
2024/01/16 02:48:08;;;;;;;6.50;0.70;;;-0.20;93.80;;;;;;5105544;28;20463;-78
2024/01/16 02:50:34;;;;;;;5.43;1.05;;;-0.10;93.70;;;;;;5104833;27;20483;-78
2024/01/16 02:52:59;;;;;;;8.85;0.75;;;-0.20;93.70;;;;;;5096246;28;20505;-78
2024/01/16 02:55:25;;;;;;;6.03;0.50;;;-0.20;94.10;;;;;;5092558;28;20417;-78
2024/01/16 02:57:51;;;;;;;6.90;0.50;;;-0.20;94.20;;;;;;5087659;28;20757;-78
2024/01/16 03:00:17;;;;;;;6.47;0.68;;;-0.10;94.20;;;;;;5090042;28;20519;-78
2024/01/16 03:02:43;;;;;;;5.72;0.65;;;-0.20;94.20;;;;;;5084993;28;20444;-78
2024/01/16 03:05:10;;;;;;;9.15;0.63;;;-0.10;94.60;;;;;;5088855;28;20742;-77
2024/01/16 03:07:36;;;;;;;5.50;0.90;;;-0.10;94.60;;;;;;5091501;28;20405;-78
2024/01/16 03:10:03;;;;;;;5.28;0.52;;;-0.10;94.80;;;;;;5094275;28;21244;-77
2024/01/16 03:12:28;;;;;;;5.57;0.50;;;-0.10;94.80;;;;;;5097532;28;20493;-78
2024/01/16 03:14:54;;;;;;;6.57;0.83;;;0.00;95.00;;;;;;5099745;28;20428;-78
2024/01/16 03:17:20;;;;;;;8.55;0.70;;;0.00;95.10;;;;;;5104578;28;20412;-78
2024/01/16 03:19:46;;;;;;;6.85;0.70;;;0.10;95.30;;;;;;5090015;28;20509;-78
2024/01/16 03:22:12;;;;;;;12.88;0.90;;;0.10;95.20;;;;;;5093031;28;20452;-78
2024/01/16 03:24:38;;;;;;;6.93;0.83;;;0.20;95.50;;;;;;5099461;28;20510;-78
2024/01/16 03:27:04;;;;;;;8.23;0.70;;;0.20;95.60;;;;;;5085254;28;20906;-78
2024/01/16 03:29:30;;;;;;;10.35;1.00;;;0.30;95.50;;;;;;5090297;28;20455;-78
2024/01/16 03:31:55;;;;;;;9.10;1.23;;;0.20;95.30;;;;;;5104374;28;20457;-80
2024/01/16 03:34:21;;;;;;;7.22;0.95;;;0.30;95.40;;;;;;5092662;28;20440;-78
2024/01/16 03:36:46;;;;;;;10.63;1.13;;;0.30;95.40;;;;;;5088712;28;20398;-78
2024/01/16 03:39:12;;;;;;;7.83;0.80;;;0.30;95.70;;;;;;5098313;28;20431;-78
2024/01/16 03:41:38;;;;;;;6.75;1.02;;;0.30;95.30;;;;;;5100992;28;20404;-78
2024/01/16 03:44:04;;;;;;;7.38;0.98;;;0.30;95.20;;;;;;5096361;28;20784;-78
2024/01/16 03:46:29;;;;;;;9.43;1.25;;;0.30;94.90;;;;;;5096569;28;20538;-78
2024/01/16 03:48:55;;;;;;;8.40;1.00;;;0.20;94.80;;;;;;5095877;28;20504;-78
2024/01/16 03:51:20;;;;;;;9.18;1.02;;;0.20;94.70;;;;;;5097810;28;20401;-78
2024/01/16 03:53:46;;;;;;;5.50;0.93;;;0.10;94.60;;;;;;5103373;28;20864;-78
2024/01/16 03:56:12;;;;;;;6.83;0.80;;;0.10;94.70;;;;;;5096350;28;20545;-79
2024/01/16 03:58:40;;;;;;;7.25;0.85;;;0.10;94.80;;;;;;5101568;28;20396;-77
2024/01/16 04:01:06;;;;;;;7.80;0.70;;;0.10;95.00;;;;;;5088314;28;20434;-77
2024/01/16 04:03:32;;;;;;;6.93;0.98;;;0.10;95.10;;;;;;5101371;28;20491;-77
2024/01/16 04:05:58;;;;;;;6.75;0.75;;;0.10;95.20;;;;;;5099501;28;20425;-78
2024/01/16 04:08:23;;;;;;;8.70;0.73;;;0.00;95.20;;;;;;5101327;28;20403;-78
2024/01/16 04:10:49;;;;;;;6.33;0.90;;;0.00;95.10;;;;;;5090611;28;20520;-78
2024/01/16 04:13:15;;;;;;;10.57;1.20;;;0.00;95.30;;;;;;5097869;28;20932;-78
2024/01/16 04:15:40;;;;;;;7.67;1.40;;;0.00;95.70;;;;;;5088962;28;20503;-78
2024/01/16 04:18:06;;;;;;;15.30;1.67;;;0.00;96.00;;;;;;5102575;28;20754;-77
2024/01/16 04:20:32;;;;;;;9.30;1.23;;;0.10;96.20;;;;;;5090125;28;20410;-78
2024/01/16 04:22:58;;;;;;;5.83;1.07;;;0.00;96.20;;;;;;5102380;28;20553;-78
2024/01/16 04:25:23;;;;;;;8.77;1.20;;;0.10;96.40;;;;;;5092551;28;20762;-78
2024/01/16 04:27:49;;;;;;;11.95;1.33;;;0.10;96.60;;;;;;5102892;28;20401;-78
2024/01/16 04:30:15;;;;;;;11.82;1.40;;;0.10;96.60;;;;;;5077428;28;20482;-78
2024/01/16 04:32:41;;;;;;;10.83;1.00;;;0.10;96.50;;;;;;5102263;28;20448;-77
2024/01/16 04:35:07;;;;;;;8.17;0.93;;;0.10;96.60;;;;;;5100801;28;20405;-77
2024/01/16 04:37:32;;;;;;;8.93;1.38;;;0.10;96.60;;;;;;5102116;28;20479;-78
2024/01/16 04:39:59;;;;;;;9.63;1.42;;;0.10;96.60;;;;;;5102220;28;20483;-77
2024/01/16 04:42:25;;;;;;;11.10;1.20;;;0.10;96.60;;;;;;5069036;28;20446;-78
2024/01/16 04:44:50;;;;;;;13.60;1.33;;;0.10;96.50;;;;;;5098880;28;20806;-78
2024/01/16 04:47:16;;;;;;;9.03;1.00;;;0.10;96.40;;;;;;5096873;28;20408;-77
2024/01/16 04:49:42;;;;;;;10.15;1.25;;;0.10;96.40;;;;;;5097217;28;20749;-77
2024/01/16 04:52:08;;;;;;;8.00;1.08;;;0.10;96.50;;;;;;5093246;28;20423;-78
2024/01/16 04:54:34;;;;;;;10.67;1.20;;;0.20;96.50;;;;;;5103579;28;20433;-78
2024/01/16 04:56:59;;;;;;;10.97;1.00;;;0.20;96.30;;;;;;5096200;28;21001;-77
2024/01/16 04:59:25;;;;;;;7.40;1.10;;;0.30;95.70;;;;;;5090178;28;20900;-77
2024/01/16 05:01:51;;;;;;;8.40;0.80;;;0.30;95.00;;;;;;5096799;28;20503;-78
2024/01/16 05:04:17;;;;;;;10.27;1.50;;;0.30;94.60;;;;;;5088373;28;20890;-78
2024/01/16 05:06:42;;;;;;;6.60;0.80;;;0.30;94.30;;;;;;5099529;28;20425;-78
2024/01/16 05:09:09;;;;;;;10.47;2.23;;;0.40;94.30;;;;;;5100410;28;20933;-77
2024/01/16 05:11:35;;;;;;;8.70;1.20;;;0.40;93.60;;;;;;5089112;28;20425;-78
2024/01/16 05:14:01;;;;;;;11.07;1.00;;;0.40;93.60;;;;;;5098870;28;20428;-77
2024/01/16 05:16:27;;;;;;;8.03;0.80;;;0.40;92.90;;;;;;5102995;28;20429;-78
2024/01/16 05:18:53;;;;;;;9.18;1.05;;;0.40;93.30;;;;;;5101485;28;20402;-78
2024/01/16 05:21:20;;;;;;;11.97;1.30;;;0.50;92.80;;;;;;5105496;28;20449;-78
2024/01/16 05:23:45;;;;;;;7.80;1.10;;;0.50;92.50;;;;;;5099864;28;20412;-77
2024/01/16 05:26:11;;;;;;;12.63;1.27;;;0.50;92.10;;;;;;5104919;28;20740;-77
2024/01/16 05:28:38;;;;;;;8.27;0.80;;;0.50;92.30;;;;;;5097563;28;20495;-76
2024/01/16 05:31:04;;;;;;;7.75;1.25;;;0.50;92.50;;;;;;5105020;28;20404;-77
2024/01/16 05:33:29;;;;;;;6.10;1.10;;;0.50;92.20;;;;;;5093103;28;20475;-77
2024/01/16 05:35:57;;;;;;;7.53;0.90;;;0.50;92.20;;;;;;5101824;28;20416;-78
2024/01/16 05:38:23;;;;;;;7.82;1.00;;;0.50;92.20;;;;;;5090487;28;20920;-77
2024/01/16 05:40:48;;;;;;;8.97;1.23;;;0.50;92.10;;;;;;5094877;28;20397;-77
2024/01/16 05:43:14;;;;;;;8.07;1.03;;;0.50;92.50;;;;;;5095403;28;20498;-77
2024/01/16 05:45:40;;;;;;;7.80;1.00;;;0.50;92.60;;;;;;5104386;28;20410;-77
2024/01/16 05:48:09;;;;;;;7.43;0.80;;;0.50;92.60;;;;;;5095817;28;20425;-78
2024/01/16 05:50:35;;;;;;;11.10;1.17;;;0.60;92.70;;;;;;5099858;28;20427;-77
2024/01/16 05:53:02;;;;;;;6.77;0.93;;;0.60;92.70;;;;;;5090785;28;20433;-77
2024/01/16 05:55:28;;;;;;;7.68;0.73;;;0.60;92.70;;;;;;5096638;28;20931;-78
2024/01/16 05:57:54;;;;;;;5.57;0.90;;;0.60;92.70;;;;;;5089153;28;20398;-78
2024/01/16 06:00:22;;;;;;;9.00;1.00;;;0.60;92.70;;;;;;5097457;28;20471;-78
2024/01/16 06:02:48;;;;;;;6.50;0.85;;;0.60;92.90;;;;;;5098636;28;20425;-77
2024/01/16 06:05:15;;;;;;;10.00;1.13;;;0.60;92.90;;;;;;5096929;28;20445;-78
2024/01/16 06:07:41;;;;;;;6.72;0.75;;;0.60;92.60;;;;;;5099041;28;20429;-77
2024/01/16 06:10:07;;;;;;;9.80;0.93;;;0.60;92.30;;;;;;5087401;28;20430;-78
2024/01/16 06:12:33;;;;;;;9.68;1.08;;;0.60;92.30;;;;;;5099153;28;20453;-78
2024/01/16 06:14:59;;;;;;;8.65;1.15;;;0.50;92.60;;;;;;5092237;28;20950;-78
2024/01/16 06:17:25;;;;;;;9.67;0.97;;;0.50;92.40;;;;;;5092217;28;20418;-78
2024/01/16 06:19:50;;;;;;;7.90;0.80;;;0.50;92.50;;;;;;5102694;28;21870;-78
2024/01/16 06:22:16;;;;;;;7.67;1.00;;;0.40;92.70;;;;;;5103285;28;20406;-78
2024/01/16 06:24:41;;;;;;;8.23;1.10;;;0.50;93.10;;;;;;5095043;28;20400;-77
2024/01/16 06:27:07;;;;;;;9.90;1.27;;;0.50;93.40;;;;;;5101599;28;20417;-79
2024/01/16 06:29:33;;;;;;;11.23;1.23;;;0.50;93.70;;;;;;5099651;28;20398;-78
2024/01/16 06:31:59;;;;;;;9.93;1.00;;;0.60;94.00;;;;;;5090976;28;20421;-78
2024/01/16 06:34:24;;;;;;;8.93;1.23;;;0.60;94.30;;;;;;5102370;28;20512;-77
2024/01/16 06:36:50;;;;;;;6.27;1.07;;;0.60;94.60;;;;;;5094825;28;20479;-77
2024/01/16 06:39:15;;;;;;;9.85;1.20;;;0.70;95.00;;;;;;5103335;28;20406;-77
2024/01/16 06:41:41;;;;;;;12.00;1.60;;;0.70;95.50;;;;;;5075133;28;20418;-77
2024/01/16 06:44:07;;;;;;;9.10;0.95;;;0.70;96.20;;;;;;5092799;28;20407;-77
2024/01/16 06:46:33;;;;;;;12.00;1.70;;;0.70;96.00;;;;;;5102496;28;20412;-77
2024/01/16 06:48:58;;;;;;;14.88;1.70;;;0.80;96.60;;;;;;5102395;28;20932;-77
2024/01/16 06:51:24;;;;;;;10.73;1.30;;;0.80;97.20;;;;;;5102093;28;20396;-77
2024/01/16 06:53:49;;;;;;;13.20;1.63;;;0.80;97.20;;;;;;5102711;28;20809;-77
2024/01/16 06:56:15;;;;;;;14.57;2.20;;;0.80;97.40;;;;;;5092643;28;20912;-77
2024/01/16 06:58:40;;;;;;;13.53;1.47;;;0.80;97.70;;;;;;5102473;28;20954;-77
2024/01/16 07:01:08;;;;;;;11.03;1.67;;;0.80;97.80;;;;;;5102728;28;20868;-77
2024/01/16 07:03:34;;;;;;;12.10;1.60;;;0.80;98.10;;;;;;5101832;28;20419;-77
2024/01/16 07:06:00;;;;;;;11.93;1.92;;;0.80;97.90;;;;;;5092876;28;20398;-77
2024/01/16 07:08:25;;;;;;;12.07;1.53;;;0.80;98.00;;;;;;5088427;28;20437;-77
2024/01/16 07:10:51;;;;;;;10.30;1.20;;;0.80;98.20;;;;;;5085268;28;20441;-77
2024/01/16 07:13:16;;;;;;;13.73;1.67;;;0.80;98.30;;;;;;5102653;28;20960;-77
2024/01/16 07:15:42;;;;;;;11.03;1.43;;;0.70;98.30;;;;;;5103353;28;20408;-77
2024/01/16 07:18:08;;;;;;;6.67;1.30;;;0.70;98.40;;;;;;5102099;28;20435;-77
2024/01/16 07:20:33;;;;;;;9.32;1.20;;;0.70;98.50;;;;;;5102234;28;20767;-77
2024/01/16 07:23:00;;;;;;;8.87;1.10;;;0.60;98.40;;;;;;5100927;28;20464;-78
2024/01/16 07:25:25;;;;;;;14.13;2.00;;;0.60;98.30;;;;;;5102252;28;20415;-77
2024/01/16 07:27:51;;;;;;;7.72;1.33;;;0.50;98.20;;;;;;5101250;28;20482;-77
2024/01/16 07:30:16;;;;;;;10.53;1.13;;;0.50;98.20;;;;;;5101994;28;20400;-77
2024/01/16 07:32:42;;;;;;;12.68;1.25;;;0.40;98.20;;;;;;5102251;28;20411;-77
2024/01/16 07:35:08;;;;;;;9.65;1.00;;;0.30;98.10;;;;;;5103119;28;20400;-77
2024/01/16 07:37:33;;;;;;;13.98;1.60;;;0.30;98.10;;;;;;5092460;28;20400;-77
2024/01/16 07:39:59;;;;;;;7.90;1.00;;;0.20;98.10;;;;;;5101684;28;20946;-77
2024/01/16 07:42:25;;;;;;;10.13;1.40;;;0.20;98.10;;;;;;5090609;28;20408;-77
2024/01/16 07:44:51;;;;;;;11.02;1.40;;;0.10;98.10;;;;;;5101379;28;20408;-77
2024/01/16 07:47:17;;;;;;;10.50;1.80;;;0.10;98.00;;;;;;5099653;28;20409;-77
2024/01/16 07:49:43;;;;;;;9.68;1.55;;;0.10;98.20;;;;;;5102207;28;20463;-77
2024/01/16 07:52:09;;;;;;;10.57;1.20;;;0.00;98.40;;;;;;5099986;28;20483;-77
2024/01/16 07:54:34;;;;;;;8.13;1.17;;;0.10;98.60;;;;;;5100619;28;20550;-77
2024/01/16 07:57:00;;;;;;;8.15;1.42;;;0.10;98.80;;;;;;5099555;28;20428;-77
2024/01/16 07:59:26;;;;;;;9.97;1.30;;;0.10;98.90;;;;;;5101550;28;20408;-77
2024/01/16 08:01:53;;;;;;;9.30;1.42;;;0.20;99.10;;;;;;5099436;28;20419;-77
2024/01/16 08:04:19;;;;;;;9.15;1.02;;;0.20;99.00;;;;;;5100845;28;20514;-77
2024/01/16 08:06:46;;;;;;;11.60;1.63;;;0.20;99.10;;;;;;5094144;28;20504;-77
2024/01/16 08:09:12;;;;;;;9.15;1.60;;;0.30;99.10;;;;;;5093620;28;20975;-77
2024/01/16 08:11:39;;;;;;;10.45;2.10;;;0.30;99.10;;;;;;5090098;28;20400;-77
2024/01/16 08:14:05;;;;;;;9.68;1.10;;;0.30;99.10;;;;;;5102212;28;20430;-78
2024/01/16 08:16:31;;;;;;;9.40;1.60;;;0.40;99.10;;;;;;5073948;28;20404;-77
2024/01/16 08:18:56;;;;;;;8.77;1.13;;;0.40;99.10;;;;;;5100223;28;20410;-80
2024/01/16 08:21:22;;;;;;;11.63;1.33;;;0.50;99.20;;;;;;5097062;28;20924;-77
2024/01/16 08:23:47;;;;;;;5.57;0.90;;;0.50;99.30;;;;;;5087481;28;20966;-77
2024/01/16 08:26:13;;;;;;;5.38;0.73;;;0.60;99.40;;;;;;5101885;28;20397;-77
2024/01/16 08:28:39;;;;;;;5.83;0.70;;;0.70;99.30;;;;;;5099469;28;20405;-77
2024/01/16 08:31:04;;;;;;;5.23;0.50;;;0.80;99.50;;;;;;5089682;28;20396;-77
2024/01/16 08:33:31;;;;;;;5.95;0.65;;;0.90;99.60;;;;;;5099917;28;20427;-77
2024/01/16 08:35:56;;;;;;;5.05;0.60;;;0.90;99.50;;;;;;5098624;28;20932;-77
2024/01/16 08:38:22;;;;;;;4.70;0.40;;;0.90;99.40;;;;;;5100115;28;20388;-77
2024/01/16 08:40:48;;;;;;;3.85;0.40;;;0.90;99.30;;;;;;5098107;28;20392;-77
2024/01/16 08:43:14;;;;;;;7.07;0.50;;;0.90;99.30;;;;;;5092999;28;20410;-77
2024/01/16 08:45:39;;;;;;;4.63;0.65;;;0.90;99.40;;;;;;5097187;28;20520;-76
2024/01/16 08:48:05;;;;;;;7.10;0.80;;;0.90;99.40;;;;;;5099580;28;20401;-77
2024/01/16 08:50:31;;;;;;;7.77;0.80;;;0.80;99.30;;;;;;5096536;28;20397;-77
2024/01/16 08:52:56;;;;;;;8.77;1.00;;;0.80;99.20;;;;;;5098539;28;20420;-77
2024/01/16 08:55:22;;;;;;;10.57;1.40;;;0.80;99.30;;;;;;5097167;28;20397;-77
2024/01/16 08:57:48;;;;;;;10.97;1.13;;;0.80;99.20;;;;;;5099898;28;20880;-76
2024/01/16 09:00:15;;;;;;;10.13;1.65;;;0.80;99.20;;;;;;5095540;28;20411;-77
2024/01/16 09:02:40;;;;;;;8.43;1.10;;;0.90;99.30;;;;;;5098778;28;20766;-77
2024/01/16 09:05:06;;;;;;;6.53;1.13;;;0.90;99.50;;;;;;5095411;28;20419;-77
2024/01/16 09:07:32;;;;;;;6.00;1.20;;;1.00;99.70;;;;;;5097823;28;20404;-77
2024/01/16 09:09:58;;;;;;;7.45;0.90;;;1.00;99.70;;;;;;5093384;28;20406;-77
2024/01/16 09:12:23;;;;;;;8.50;1.03;;;1.00;99.40;;;;;;5095680;28;20487;-77
2024/01/16 09:14:49;;;;;;;8.60;1.67;;;1.10;99.30;;;;;;5091614;28;20424;-77
2024/01/16 09:17:15;;;;;;;8.52;1.23;;;1.10;99.10;;;;;;5083654;28;20400;-77
2024/01/16 09:19:41;;;;;;;7.00;1.15;;;1.10;99.10;;;;;;5101629;28;20400;-77
2024/01/16 09:22:06;;;;;;;8.38;1.20;;;1.20;99.00;;;;;;5100970;28;20412;-77
2024/01/16 09:24:32;;;;;;;7.93;1.27;;;1.10;98.90;;;;;;5100534;28;20417;-77
2024/01/16 09:26:58;;;;;;;6.13;1.53;;;1.20;98.80;;;;;;5100602;28;20393;-77
2024/01/16 09:29:24;;;;;;;7.53;1.08;;;1.30;98.90;;;;;;5081492;28;20485;-77
2024/01/16 09:31:50;;;;;;;8.68;1.35;;;1.30;98.90;;;;;;5103014;28;20565;-77
2024/01/16 09:34:17;;;;;;;5.90;0.90;;;1.30;98.90;;;;;;5103884;28;20511;-77
2024/01/16 09:36:42;;;;;;;9.88;1.15;;;1.40;99.10;;;;;;5105345;28;20400;-77
2024/01/16 09:39:08;;;;;;;6.45;0.80;;;1.50;99.20;;;;;;5102323;28;20472;-77
2024/01/16 09:41:45;;;;;;;7.32;1.10;;;1.70;99.20;;;;;;5104617;28;20396;-77
2024/01/16 09:44:10;;;;;;;6.22;0.73;;;1.80;99.10;;;;;;5103704;28;20517;-76
2024/01/16 09:46:39;;;;;;;7.13;0.93;;;1.90;98.80;;;;;;5101935;28;20469;-76
2024/01/16 09:49:06;;;;;;;5.38;1.20;;;2.00;98.20;;;;;;5103503;28;20766;-76
2024/01/16 09:51:32;;;;;;;5.07;1.00;;;2.00;97.40;;;;;;5101896;28;20450;-77
2024/01/16 09:53:58;;;;;;;4.05;0.80;;;2.00;97.10;;;;;;5103720;28;20420;-76
2024/01/16 09:56:28;;;;;;;4.50;0.97;;;2.00;96.70;;;;;;5092224;28;20399;-76
2024/01/16 09:59:02;;;;;;;6.57;0.87;;;2.00;96.40;;;;;;5094826;28;20404;-77
2024/01/16 10:01:29;;;;;;;4.38;1.02;;;2.00;96.30;;;;;;5100047;28;20418;-77
2024/01/16 10:03:55;;;;;;;4.55;0.63;;;2.00;95.90;;;;;;5105247;28;20393;-77
2024/01/16 10:06:22;;;;;;;7.10;0.88;;;1.90;95.30;;;;;;5098658;28;20458;-77
2024/01/16 10:08:48;;;;;;;6.00;0.82;;;1.90;95.30;;;;;;5098340;27;20446;-76
2024/01/16 10:11:13;;;;;;;7.78;0.90;;;1.90;95.60;;;;;;5091515;28;20486;-76
2024/01/16 10:13:39;;;;;;;5.23;0.80;;;1.90;95.70;;;;;;5107170;28;20424;-77
2024/01/16 10:16:05;;;;;;;4.83;0.70;;;2.00;96.10;;;;;;5103446;28;20764;-76
2024/01/16 10:18:30;;;;;;;4.32;0.77;;;2.10;96.90;;;;;;5107349;28;20964;-76
2024/01/16 10:20:56;;;;;;;4.35;0.95;;;2.20;97.50;;;;;;5100270;28;20799;-77
2024/01/16 10:23:30;;;;;;;7.13;1.05;;;2.40;97.60;;;;;;5098034;28;20393;-76
2024/01/16 10:26:12;;;;;;;5.57;0.75;;;2.40;96.20;;;;;;5102020;27;20398;-77
2024/01/16 10:28:39;;;;;;;6.30;1.00;;;2.30;95.50;;;;;;5102768;28;20396;-77
2024/01/16 10:31:07;;;;;;;5.07;0.70;;;2.40;95.30;;;;;;5102236;28;20813;-76
2024/01/16 10:33:33;;;;;;;6.10;0.90;;;2.40;95.20;;;;;;5102728;28;20933;-77
2024/01/16 10:36:14;;;;;;;5.32;0.88;;;2.50;95.30;;;;;;5102317;28;20397;-77
2024/01/16 10:38:41;;;;;;;6.68;1.00;;;2.50;95.20;;;;;;5099104;28;20407;-77
2024/01/16 10:41:14;;;;;;;4.00;0.70;;;2.60;94.60;;;;;;5104617;28;20403;-77
2024/01/16 10:43:40;;;;;;;4.82;0.82;;;2.70;94.80;;;;;;5095800;28;20414;-77
2024/01/16 10:46:14;;;;;;;3.85;0.50;;;2.90;94.40;;;;;;5103695;28;20396;-77
2024/01/16 10:48:44;;;;;;;4.57;0.60;;;2.90;93.30;;;;;;5096064;28;20398;-77
2024/01/16 10:51:14;;;;;;;4.20;0.73;;;3.00;92.70;;;;;;5084576;28;20420;-77
2024/01/16 10:53:48;;;;;;;6.63;1.10;;;3.00;91.80;;;;;;5098105;28;20438;-77
2024/01/16 10:56:17;;;;;;;6.23;1.00;;;3.00;90.70;;;;;;5101458;27;20540;-77
2024/01/16 10:58:43;;;;;;;7.13;0.80;;;3.00;90.00;;;;;;5098855;28;20400;-77
2024/01/16 11:01:13;;;;;;;4.82;0.70;;;2.90;89.00;;;;;;5100294;28;20404;-77
2024/01/16 11:03:46;;;;;;;4.13;0.60;;;2.90;90.50;;;;;;5098840;28;20421;-77
2024/01/16 11:06:13;;;;;;;7.07;0.90;;;2.90;90.50;;;;;;5098465;28;20510;-77
2024/01/16 11:08:39;;;;;;;4.65;0.70;;;2.90;90.20;;;;;;5101088;28;20525;-77
2024/01/16 11:11:05;;;;;;;4.43;0.80;;;2.80;90.20;;;;;;5089983;28;20481;-77
2024/01/16 11:13:35;;;;;;;5.73;1.13;;;2.70;89.70;;;;;;5084543;28;20930;-76
2024/01/16 11:16:07;;;;;;;2.73;0.50;;;2.60;90.00;;;;;;5090535;28;20503;-77
2024/01/16 11:18:34;;;;;;;3.58;0.55;;;2.50;90.60;;;;;;5095422;28;20518;-76
2024/01/16 11:21:02;;;;;;;3.90;0.63;;;2.40;90.60;;;;;;5079518;28;20406;-77
2024/01/16 11:23:28;;;;;;;5.07;0.60;;;2.30;91.10;;;;;;5086520;28;20423;-77
2024/01/16 11:25:54;;;;;;;6.63;0.68;;;2.20;91.60;;;;;;5098010;28;20907;-77
2024/01/16 11:28:19;;;;;;;4.35;0.93;;;2.20;92.20;;;;;;5103468;28;20407;-76
2024/01/16 11:30:45;;;;;;;5.40;1.10;;;2.10;92.70;;;;;;5100039;28;20402;-77
2024/01/16 11:33:33;;;;;;;4.90;0.80;;;2.10;93.10;;;;;;5103244;28;21100;-76
2024/01/16 11:35:59;;;;;;;5.90;0.98;;;2.10;93.30;;;;;;5097140;28;20412;-76
2024/01/16 11:38:29;;;;;;;3.47;0.90;;;2.00;93.40;;;;;;5101737;28;20416;-76
2024/01/16 11:40:55;;;;;;;9.43;1.15;;;2.00;93.60;;;;;;5102073;28;20642;-77
2024/01/16 11:43:36;;;;;;;5.75;1.30;;;2.00;94.00;;;;;;5101984;28;20973;-76
2024/01/16 11:46:03;;;;;;;4.85;1.05;;;1.90;94.20;;;;;;5096166;28;20448;-77
2024/01/16 11:48:29;;;;;;;6.68;1.40;;;1.80;94.40;;;;;;5097151;28;20402;-77
2024/01/16 11:50:55;;;;;;;8.25;1.85;;;1.80;94.40;;;;;;5095223;28;20469;-77
2024/01/16 11:53:30;;;;;;;7.50;1.60;;;1.80;94.50;;;;;;5098040;28;20851;-77
2024/01/16 11:56:23;;;;;;;6.78;1.67;;;1.70;94.80;;;;;;5078929;28;20450;-77
2024/01/16 11:59:04;;;;;;;8.45;2.03;;;1.60;95.30;;;;;;5095564;28;21017;-77
2024/01/16 12:01:32;;;;;;;8.30;2.07;;;1.60;95.90;;;;;;5097560;28;20402;-77
2024/01/16 12:04:07;;;;;;;6.75;2.15;;;1.60;96.30;;;;;;5094606;28;20957;-77
2024/01/16 12:06:37;;;;;;;7.32;2.28;;;1.60;96.60;;;;;;5094623;28;20839;-77
2024/01/16 12:09:13;;;;;;;6.75;2.70;;;1.60;97.00;;;;;;5100501;28;20404;-77
2024/01/16 12:11:40;;;;;;;10.80;2.88;;;1.60;97.20;;;;;;5092701;28;20430;-77
2024/01/16 12:14:05;;;;;;;8.70;3.40;;;1.60;97.30;;;;;;5100984;28;20483;-77
2024/01/16 12:16:31;;;;;;;11.00;3.22;;;1.60;97.40;;;;;;5102462;28;20892;-77
2024/01/16 12:19:10;;;;;;;10.47;3.67;;;1.60;97.30;;;;;;5101082;28;20434;-77
2024/01/16 12:21:42;;;;;;;10.00;3.72;;;1.60;97.40;;;;;;5102813;28;20408;-77
2024/01/16 12:24:08;;;;;;;7.53;3.30;;;1.60;97.60;;;;;;5099030;28;20831;-77
2024/01/16 12:26:34;;;;;;;7.17;2.93;;;1.60;98.10;;;;;;5102393;28;20449;-78
2024/01/16 12:28:59;;;;;;;7.60;3.10;;;1.70;98.20;;;;;;5097459;28;20780;-77
2024/01/16 12:31:29;;;;;;;7.00;2.63;;;1.70;98.20;;;;;;5094957;28;20775;-78
2024/01/16 12:34:08;;;;;;;8.38;2.80;;;1.70;98.30;;;;;;5095119;28;20426;-77
2024/01/16 12:36:34;;;;;;;4.93;2.50;;;1.70;98.10;;;;;;5088895;28;20405;-77
2024/01/16 12:39:00;;;;;;;7.30;2.30;;;1.80;98.60;;;;;;5090316;28;20884;-77
2024/01/16 12:41:42;;;;;;;6.03;2.60;;;1.90;99.10;;;;;;5094197;28;20406;-78
2024/01/16 12:44:08;;;;;;;6.57;2.17;;;2.10;99.80;;;;;;5080038;28;20400;-78
2024/01/16 12:46:33;;;;;;;5.68;2.15;;;2.40;99.90;;;;;;5098038;28;20450;-77
2024/01/16 12:49:02;;;;;;;4.07;1.70;;;2.70;99.90;;;;;;5097603;28;20732;-78
2024/01/16 12:51:28;;;;;;;7.17;1.80;;;2.80;98.80;;;;;;5096075;28;20410;-78
2024/01/16 12:53:54;;;;;;;6.23;1.70;;;2.80;97.70;;;;;;5095822;28;20839;-77